Jamestown, OH (45335)

8:54 AM EDT on August 28, 2015 (GMT -0400)
KOHJAMES2 | | Change Station
CLOSE
Current Station
Personal Weather Station
Location: Jamestown, OH
Elevation: 1093 ft
Nearby Weather Stations

Elev 1093 ft 39.61 °N, 83.71 °W | Updated 16 seconds ago

Clear
Clear
59.8 °F
Feels Like 59.8 °F
N
0.0
Wind Variable Wind from SSW
Gusts 0.0 mph

Today
High -- | Low -- °F
--% Chance of Precip.
Yesterday
High -- | Low -- °F
Precip. -- in
6:59 AM 8:12 PM
Waxing Gibbous, 98% visible
Pressure 30.20 in
Visibility 3.0 miles
Clouds Clear
Dew Point 58 °F
Humidity 94%
Rainfall 0.00 in
Snow Depth Not available.
UV 0.7 out of 12
Pollen 10.30 out of 12
Air Quality Not available.
Flu Activity Not available.
METAR KILN 281154Z AUTO 00000KT 3SM BR CLR 12/11 A3020 RMK AO2 SLP227 T01220106 10133 20100 53010
Pressure 30.20 in
Visibility 3.0 miles
Clouds Clear
Dew Point 58 °F
Humidity 94%
Rainfall 0.00 in
Snow Depth Not available.
UV 0.7 out of 12
Pollen 10.30 out of 12
Air Quality Not available.
Flu Activity Not available.
METAR KILN 281154Z AUTO 00000KT 3SM BR CLR 12/11 A3020 RMK AO2 SLP227 T01220106 10133 20100 53010

10-Day Weather Forecast

×

Almanac

Astronomy

Aug. 28, 2015 Rise Set
Actual Time
Civil Twilight
Nautical Twilight
Astronomical Twilight
Moon
Length of Visible Light
Length of Day
Tomorrow will be .
, % of the Moon is Illuminated

Today's Extremes

State Highs State Lows

Community

WunderPhotos

Upload Photos

1,850,373 photos uploaded!

WunderBlogs® & News

Nearby

Air Quality

  Air Quality AQ Index Pollutant
Not available.

Snow Depth

Station Depth Elevation

Earthquake Activity

City Distance Mag. Time & Date
Minimum magnitude displayed is 2.5.

Coastal Water Temperatures

Place Temperature

Stations

Nearby Weather Stations

Station Location Temp. Windchill Dew Point Humidity Wind Precip. Elev Updated Type